George West, Texas
Current Conditions -  °F | °C
As of 10:15 AM on Sunday 25 Jan 2015 (Local Time) from KBEA Reporting Station
Clear Clear  
Wind Chill: 59°   Ceiling: Unl
Heat Index: 59°   Visibility: 10mi
Dew Point: 39°   Wind: 15mph
Humidity: 48%   Direction: 280°W
Pressure: 30.12"   Gusts: 18mph
Location:  28.33°N, 98.12°W
Report Text: KBEA 251615Z AUTO 28013G16KT 10SM CLR 15/04 A3012 RMK AO2 T01480039
Loading
Personal Weather Stations






























Interactive Weather Map New forecast layout! Learn more

10-Day Weather Forecast

Advertisements
Track Severe Weather on mobile